LBWN Airport Information

Runway Information
Runway 09 Length 8202 ft width 180 ft
Elevation 203 ft Threshold 0 ft Heading 97
Runway 27 Length 8202 ft Width 180 ft
Elevation 217 ft Threshold 0 ft Heading 277
Airport Frequencies
Type APP Name APP Frequency 121 MHZ
Type ATIS Name ATIS Frequency 118.075 MHZ
Type TWR Name TWR Frequency 119.5 MHZ
Airport Navaids
Type NDB Name Devnya Frequency 350 KHZ
Type NDB Name Varna Frequency 375 KHZ
Type NDB Name Varna Frequency 335 KHZ
Type NDB Name Varna Frequency 397 KHZ
Type NDB Name Varna Frequency 526 KHZ
Type VOR-DME Name Varna Frequency 112400 KHZ
Airport Weather Information & NOTAM
ADDS - METARS form results

(1120 UTC 17 July 2018)
 
METAR text: LBWN 171100Z 27011KT 220V290 CAVOK 31/14 Q1005 NOSIG
Conditions at: LBWN (VARNA , BG) observed 1100 UTC 17 July 2018
Temperature: 31.0°C (88°F)
Dewpoint: 14.0°C (57°F) [RH = 36%]
Pressure (altimeter): 29.68 inches Hg (1005.0 mb)
Winds: from the W (270 degrees) at 13 MPH (11 knots; 5.7 m/s)
Visibility: 6 or more miles (10+ km)
Ceiling: ceiling and visibility are OK
Clouds: unknown
Weather: no significant weather observed at this time

METAR text: LBWN 171030Z 26011KT 240V300 CAVOK 31/15 Q1006 TEMPO 27010G20KT
Conditions at: LBWN (VARNA , BG) observed 1030 UTC 17 July 2018
Temperature: 31.0°C (88°F)
Dewpoint: 15.0°C (59°F) [RH = 38%]
Pressure (altimeter): 29.70 inches Hg (1006.0 mb)
Winds: from the W (260 degrees) at 13 MPH (11 knots; 5.7 m/s)
Visibility: 6 or more miles (10+ km)
Ceiling: ceiling and visibility are OK
Clouds: unknown
Weather: no significant weather observed at this time